sensor_id;sensor_type;location;lat;lon;timestamp;temperature;humidity
70548;DHT22;58099;43.406;3.698;2022-12-16T00:01:15;10.90;99.90
70548;DHT22;58099;43.406;3.698;2022-12-16T00:03:45;10.80;99.90
70548;DHT22;58099;43.406;3.698;2022-12-16T00:06:11;10.90;99.90
70548;DHT22;58099;43.406;3.698;2022-12-16T00:08:38;10.90;99.90
70548;DHT22;58099;43.406;3.698;2022-12-16T00:11:05;10.90;99.90
70548;DHT22;58099;43.406;3.698;2022-12-16T00:13:32;10.90;99.90
70548;DHT22;58099;43.406;3.698;2022-12-16T00:15:58;10.90;99.90
70548;DHT22;58099;43.406;3.698;2022-12-16T00:18:24;10.90;99.90
70548;DHT22;58099;43.406;3.698;2022-12-16T00:20:53;10.90;99.90
70548;DHT22;58099;43.406;3.698;2022-12-16T00:23:20;10.90;99.90
70548;DHT22;58099;43.406;3.698;2022-12-16T06:59:20;10.00;99.90
70548;DHT22;58099;43.406;3.698;2022-12-16T07:02:04;10.00;99.90
70548;DHT22;58099;43.406;3.698;2022-12-16T07:04:48;10.00;99.90
70548;DHT22;58099;43.406;3.698;2022-12-16T07:07:32;10.00;99.90
70548;DHT22;58099;43.406;3.698;2022-12-16T07:10:16;9.90;99.90
70548;DHT22;58099;43.406;3.698;2022-12-16T07:13:00;9.90;99.90
70548;DHT22;58099;43.406;3.698;2022-12-16T07:15:58;9.90;99.90
70548;DHT22;58099;43.406;3.698;2022-12-16T07:18:42;9.90;99.90
70548;DHT22;58099;43.406;3.698;2022-12-16T07:21:26;9.80;99.90
70548;DHT22;58099;43.406;3.698;2022-12-16T07:24:10;9.90;99.90
70548;DHT22;58099;43.406;3.698;2022-12-16T07:26:54;9.90;99.90
70548;DHT22;58099;43.406;3.698;2022-12-16T07:29:38;9.90;99.90
70548;DHT22;58099;43.406;3.698;2022-12-16T07:32:22;9.90;99.90
70548;DHT22;58099;43.406;3.698;2022-12-16T07:35:08;9.90;99.90
70548;DHT22;58099;43.406;3.698;2022-12-16T07:37:52;9.90;99.90
70548;DHT22;58099;43.406;3.698;2022-12-16T07:40:37;9.90;99.90
70548;DHT22;58099;43.406;3.698;2022-12-16T07:43:21;9.80;99.90
70548;DHT22;58099;43.406;3.698;2022-12-16T07:46:07;9.90;99.90
70548;DHT22;58099;43.406;3.698;2022-12-16T07:48:51;9.90;99.90
70548;DHT22;58099;43.406;3.698;2022-12-16T07:51:35;9.90;99.90
70548;DHT22;58099;43.406;3.698;2022-12-16T07:54:19;9.90;99.90
70548;DHT22;58099;43.406;3.698;2022-12-16T07:57:23;9.90;99.90
70548;DHT22;58099;43.406;3.698;2022-12-16T08:00:08;9.90;99.90
70548;DHT22;58099;43.406;3.698;2022-12-16T08:02:53;9.90;99.90
70548;DHT22;58099;43.406;3.698;2022-12-16T08:05:37;10.00;99.90
70548;DHT22;58099;43.406;3.698;2022-12-16T08:08:21;10.00;99.90
70548;DHT22;58099;43.406;3.698;2022-12-16T08:11:05;10.00;99.90
70548;DHT22;58099;43.406;3.698;2022-12-16T08:13:49;10.00;99.90
70548;DHT22;58099;43.406;3.698;2022-12-16T08:16:33;10.10;99.90
70548;DHT22;58099;43.406;3.698;2022-12-16T08:19:18;10.10;99.90
70548;DHT22;58099;43.406;3.698;2022-12-16T08:22:02;10.10;99.90
70548;DHT22;58099;43.406;3.698;2022-12-16T08:24:46;10.20;99.90
70548;DHT22;58099;43.406;3.698;2022-12-16T08:27:30;10.20;99.90
70548;DHT22;58099;43.406;3.698;2022-12-16T08:30:14;10.30;99.90
70548;DHT22;58099;43.406;3.698;2022-12-16T08:32:58;10.40;99.90
70548;DHT22;58099;43.406;3.698;2022-12-16T08:35:42;10.30;99.90
70548;DHT22;58099;43.406;3.698;2022-12-16T08:38:26;10.30;99.90
70548;DHT22;58099;43.406;3.698;2022-12-16T08:41:10;10.20;99.90
70548;DHT22;58099;43.406;3.698;2022-12-16T08:43:54;10.20;99.90
70548;DHT22;58099;43.406;3.698;2022-12-16T08:46:38;10.20;99.90
70548;DHT22;58099;43.406;3.698;2022-12-16T08:49:23;10.20;99.90
70548;DHT22;58099;43.406;3.698;2022-12-16T08:52:07;10.00;99.90
70548;DHT22;58099;43.406;3.698;2022-12-16T08:54:51;9.90;99.90
70548;DHT22;58099;43.406;3.698;2022-12-16T08:57:35;9.80;99.90
70548;DHT22;58099;43.406;3.698;2022-12-16T09:00:19;9.80;99.90
70548;DHT22;58099;43.406;3.698;2022-12-16T09:03:03;9.80;99.90
70548;DHT22;58099;43.406;3.698;2022-12-16T09:05:47;9.80;99.90
70548;DHT22;58099;43.406;3.698;2022-12-16T09:08:31;9.90;99.90
70548;DHT22;58099;43.406;3.698;2022-12-16T09:11:16;10.00;99.90
70548;DHT22;58099;43.406;3.698;2022-12-16T09:14:00;10.00;99.90
70548;DHT22;58099;43.406;3.698;2022-12-16T09:16:44;10.00;99.90
70548;DHT22;58099;43.406;3.698;2022-12-16T09:19:28;10.00;99.90
70548;DHT22;58099;43.406;3.698;2022-12-16T09:22:12;10.10;99.90
70548;DHT22;58099;43.406;3.698;2022-12-16T09:24:56;10.10;99.90
70548;DHT22;58099;43.406;3.698;2022-12-16T09:27:49;10.20;99.90
70548;DHT22;58099;43.406;3.698;2022-12-16T09:30:33;11.00;99.90
70548;DHT22;58099;43.406;3.698;2022-12-16T09:33:17;11.50;99.90
70548;DHT22;58099;43.406;3.698;2022-12-16T09:36:01;12.30;99.90
70548;DHT22;58099;43.406;3.698;2022-12-16T09:38:45;12.50;99.90
70548;DHT22;58099;43.406;3.698;2022-12-16T09:41:42;13.00;99.90
70548;DHT22;58099;43.406;3.698;2022-12-16T09:44:33;13.70;99.90
70548;DHT22;58099;43.406;3.698;2022-12-16T09:50:20;14.50;99.90
70548;DHT22;58099;43.406;3.698;2022-12-16T09:53:08;14.90;99.90
70548;DHT22;58099;43.406;3.698;2022-12-16T09:55:53;15.30;99.90
70548;DHT22;58099;43.406;3.698;2022-12-16T09:58:59;15.90;99.90
70548;DHT22;58099;43.406;3.698;2022-12-16T10:01:44;15.70;99.90
70548;DHT22;58099;43.406;3.698;2022-12-16T10:04:29;15.80;99.90
70548;DHT22;58099;43.406;3.698;2022-12-16T10:07:23;16.30;99.90
70548;DHT22;58099;43.406;3.698;2022-12-16T10:13:16;16.30;99.90
70548;DHT22;58099;43.406;3.698;2022-12-16T10:22:29;17.50;99.90
70548;DHT22;58099;43.406;3.698;2022-12-16T10:25:26;18.00;99.90
70548;DHT22;58099;43.406;3.698;2022-12-16T10:28:18;18.50;99.90
70548;DHT22;58099;43.406;3.698;2022-12-16T10:31:14;18.70;99.90
70548;DHT22;58099;43.406;3.698;2022-12-16T10:33:59;19.60;99.90
70548;DHT22;58099;43.406;3.698;2022-12-16T10:36:45;20.70;99.90
70548;DHT22;58099;43.406;3.698;2022-12-16T10:39:37;21.10;99.90
70548;DHT22;58099;43.406;3.698;2022-12-16T10:42:31;21.30;99.90
70548;DHT22;58099;43.406;3.698;2022-12-16T10:45:30;21.90;99.50
70548;DHT22;58099;43.406;3.698;2022-12-16T10:48:22;21.70;98.80
70548;DHT22;58099;43.406;3.698;2022-12-16T10:51:18;21.90;98.70
70548;DHT22;58099;43.406;3.698;2022-12-16T10:54:29;21.90;98.30
70548;DHT22;58099;43.406;3.698;2022-12-16T11:03:28;20.70;98.80
70548;DHT22;58099;43.406;3.698;2022-12-16T11:06:21;20.20;97.00
70548;DHT22;58099;43.406;3.698;2022-12-16T11:09:29;19.20;96.80
70548;DHT22;58099;43.406;3.698;2022-12-16T11:12:24;19.60;99.00
70548;DHT22;58099;43.406;3.698;2022-12-16T11:15:27;18.70;97.70
70548;DHT22;58099;43.406;3.698;2022-12-16T11:18:17;18.00;98.70
70548;DHT22;58099;43.406;3.698;2022-12-16T11:21:16;17.60;99.10
70548;DHT22;58099;43.406;3.698;2022-12-16T11:24:05;17.20;99.90
70548;DHT22;58099;43.406;3.698;2022-12-16T11:26:54;16.90;99.90
70548;DHT22;58099;43.406;3.698;2022-12-16T11:29:50;16.60;99.90
70548;DHT22;58099;43.406;3.698;2022-12-16T11:32:36;16.80;99.90
70548;DHT22;58099;43.406;3.698;2022-12-16T11:35:25;17.20;99.90
70548;DHT22;58099;43.406;3.698;2022-12-16T11:38:20;17.50;99.90
70548;DHT22;58099;43.406;3.698;2022-12-16T11:41:06;16.90;99.60
70548;DHT22;58099;43.406;3.698;2022-12-16T11:43:51;16.80;99.90
70548;DHT22;58099;43.406;3.698;2022-12-16T11:46:37;16.60;99.90
70548;DHT22;58099;43.406;3.698;2022-12-16T11:49:29;16.60;99.90
70548;DHT22;58099;43.406;3.698;2022-12-16T11:52:17;16.90;99.90
70548;DHT22;58099;43.406;3.698;2022-12-16T11:55:22;17.50;99.90
70548;DHT22;58099;43.406;3.698;2022-12-16T12:04:32;18.10;98.70
70548;DHT22;58099;43.406;3.698;2022-12-16T12:07:37;19.80;99.90
70548;DHT22;58099;43.406;3.698;2022-12-16T12:10:36;18.50;97.50
70548;DHT22;58099;43.406;3.698;2022-12-16T12:16:37;18.80;98.40
70548;DHT22;58099;43.406;3.698;2022-12-16T12:22:46;19.70;97.90
70548;DHT22;58099;43.406;3.698;2022-12-16T12:29:04;18.30;99.60
70548;DHT22;58099;43.406;3.698;2022-12-16T12:34:43;17.60;99.20
70548;DHT22;58099;43.406;3.698;2022-12-16T12:38:01;17.40;99.70
70548;DHT22;58099;43.406;3.698;2022-12-16T12:44:04;16.80;99.80
70548;DHT22;58099;43.406;3.698;2022-12-16T12:46:58;16.40;99.90
70548;DHT22;58099;43.406;3.698;2022-12-16T12:49:56;16.10;99.90
70548;DHT22;58099;43.406;3.698;2022-12-16T12:52:59;16.30;99.90
70548;DHT22;58099;43.406;3.698;2022-12-16T12:56:07;16.50;99.90
70548;DHT22;58099;43.406;3.698;2022-12-16T12:58:55;16.50;99.90
70548;DHT22;58099;43.406;3.698;2022-12-16T13:01:43;16.00;99.90
70548;DHT22;58099;43.406;3.698;2022-12-16T13:04:29;15.90;99.90
70548;DHT22;58099;43.406;3.698;2022-12-16T13:07:15;16.00;99.90
70548;DHT22;58099;43.406;3.698;2022-12-16T13:22:33;16.50;99.90
70548;DHT22;58099;43.406;3.698;2022-12-16T13:28:32;16.20;99.90
70548;DHT22;58099;43.406;3.698;2022-12-16T13:32:02;16.20;99.90
70548;DHT22;58099;43.406;3.698;2022-12-16T13:38:19;16.10;99.90
70548;DHT22;58099;43.406;3.698;2022-12-16T13:44:11;15.80;99.90
70548;DHT22;58099;43.406;3.698;2022-12-16T13:46:56;15.90;99.90
70548;DHT22;58099;43.406;3.698;2022-12-16T13:52:57;15.80;99.90
70548;DHT22;58099;43.406;3.698;2022-12-16T13:55:56;15.50;99.90
70548;DHT22;58099;43.406;3.698;2022-12-16T13:58:44;15.50;99.90
70548;DHT22;58099;43.406;3.698;2022-12-16T14:04:41;16.20;99.90
70548;DHT22;58099;43.406;3.698;2022-12-16T14:07:27;16.20;99.90
70548;DHT22;58099;43.406;3.698;2022-12-16T14:25:14;14.70;99.90
70548;DHT22;58099;43.406;3.698;2022-12-16T14:27:59;14.50;99.90
70548;DHT22;58099;43.406;3.698;2022-12-16T14:30:44;14.50;99.90
70548;DHT22;58099;43.406;3.698;2022-12-16T14:33:29;14.60;99.90
70548;DHT22;58099;43.406;3.698;2022-12-16T14:36:27;14.60;99.90
70548;DHT22;58099;43.406;3.698;2022-12-16T14:39:20;14.50;99.90
70548;DHT22;58099;43.406;3.698;2022-12-16T14:42:18;14.40;99.90
70548;DHT22;58099;43.406;3.698;2022-12-16T14:45:04;14.20;99.90
70548;DHT22;58099;43.406;3.698;2022-12-16T14:51:24;13.60;99.90
70548;DHT22;58099;43.406;3.698;2022-12-16T14:54:26;13.70;99.90
70548;DHT22;58099;43.406;3.698;2022-12-16T15:02:58;13.50;99.90
70548;DHT22;58099;43.406;3.698;2022-12-16T15:05:45;13.50;99.90
70548;DHT22;58099;43.406;3.698;2022-12-16T15:08:32;13.50;99.90
70548;DHT22;58099;43.406;3.698;2022-12-16T15:11:19;13.40;99.90
70548;DHT22;58099;43.406;3.698;2022-12-16T15:14:08;13.40;99.90
70548;DHT22;58099;43.406;3.698;2022-12-16T15:16:54;13.30;99.90
70548;DHT22;58099;43.406;3.698;2022-12-16T15:19:50;13.30;99.90
70548;DHT22;58099;43.406;3.698;2022-12-16T15:22:35;13.30;99.90
70548;DHT22;58099;43.406;3.698;2022-12-16T15:25:21;13.30;99.90
70548;DHT22;58099;43.406;3.698;2022-12-16T15:28:23;13.30;99.90
70548;DHT22;58099;43.406;3.698;2022-12-16T15:31:21;13.10;99.90
70548;DHT22;58099;43.406;3.698;2022-12-16T15:34:26;13.00;99.90
70548;DHT22;58099;43.406;3.698;2022-12-16T15:37:36;13.00;99.90
70548;DHT22;58099;43.406;3.698;2022-12-16T15:40:29;13.00;99.90
70548;DHT22;58099;43.406;3.698;2022-12-16T15:43:31;13.00;99.90
70548;DHT22;58099;43.406;3.698;2022-12-16T15:46:20;13.00;99.90
70548;DHT22;58099;43.406;3.698;2022-12-16T15:49:05;13.00;99.90
70548;DHT22;58099;43.406;3.698;2022-12-16T15:51:50;13.00;99.90
70548;DHT22;58099;43.406;3.698;2022-12-16T15:54:51;13.10;99.90
70548;DHT22;58099;43.406;3.698;2022-12-16T15:57:37;13.10;99.90
70548;DHT22;58099;43.406;3.698;2022-12-16T16:00:31;13.10;99.90
70548;DHT22;58099;43.406;3.698;2022-12-16T16:03:22;13.10;99.90
70548;DHT22;58099;43.406;3.698;2022-12-16T16:09:14;13.00;99.90
70548;DHT22;58099;43.406;3.698;2022-12-16T16:11:59;12.90;99.90
70548;DHT22;58099;43.406;3.698;2022-12-16T16:14:43;12.80;99.90
70548;DHT22;58099;43.406;3.698;2022-12-16T16:17:28;12.80;99.90
70548;DHT22;58099;43.406;3.698;2022-12-16T16:20:16;12.80;99.90
70548;DHT22;58099;43.406;3.698;2022-12-16T16:23:03;12.80;99.90
70548;DHT22;58099;43.406;3.698;2022-12-16T16:25:48;12.90;99.90
70548;DHT22;58099;43.406;3.698;2022-12-16T16:28:33;12.80;99.90
70548;DHT22;58099;43.406;3.698;2022-12-16T16:31:17;12.70;99.90
70548;DHT22;58099;43.406;3.698;2022-12-16T16:34:02;12.70;99.90
70548;DHT22;58099;43.406;3.698;2022-12-16T16:36:53;12.60;99.90
70548;DHT22;58099;43.406;3.698;2022-12-16T16:39:37;12.60;99.90
70548;DHT22;58099;43.406;3.698;2022-12-16T16:42:22;12.60;99.90
70548;DHT22;58099;43.406;3.698;2022-12-16T16:45:07;12.50;99.90
70548;DHT22;58099;43.406;3.698;2022-12-16T16:47:56;12.50;99.90
70548;DHT22;58099;43.406;3.698;2022-12-16T16:50:44;12.40;99.90
70548;DHT22;58099;43.406;3.698;2022-12-16T16:53:29;12.40;99.90
70548;DHT22;58099;43.406;3.698;2022-12-16T16:56:13;12.40;99.90
70548;DHT22;58099;43.406;3.698;2022-12-16T16:58:57;12.50;99.90
70548;DHT22;58099;43.406;3.698;2022-12-16T17:01:41;12.40;99.90
70548;DHT22;58099;43.406;3.698;2022-12-16T17:04:25;12.40;99.90
70548;DHT22;58099;43.406;3.698;2022-12-16T17:07:09;12.40;99.90
70548;DHT22;58099;43.406;3.698;2022-12-16T17:09:53;12.40;99.90
70548;DHT22;58099;43.406;3.698;2022-12-16T17:12:40;12.50;99.90
70548;DHT22;58099;43.406;3.698;2022-12-16T17:15:35;12.30;99.90
70548;DHT22;58099;43.406;3.698;2022-12-16T17:18:20;12.30;99.90
70548;DHT22;58099;43.406;3.698;2022-12-16T17:21:04;12.30;99.90
70548;DHT22;58099;43.406;3.698;2022-12-16T17:23:49;12.20;99.90
70548;DHT22;58099;43.406;3.698;2022-12-16T17:26:33;12.10;99.90
70548;DHT22;58099;43.406;3.698;2022-12-16T17:29:21;11.90;99.90
70548;DHT22;58099;43.406;3.698;2022-12-16T17:32:10;11.80;99.90
70548;DHT22;58099;43.406;3.698;2022-12-16T17:34:54;11.70;99.90
70548;DHT22;58099;43.406;3.698;2022-12-16T17:37:39;11.60;99.90
70548;DHT22;58099;43.406;3.698;2022-12-16T17:40:23;11.50;99.90
70548;DHT22;58099;43.406;3.698;2022-12-16T17:43:07;11.40;99.90
70548;DHT22;58099;43.406;3.698;2022-12-16T17:46:00;11.40;99.90
70548;DHT22;58099;43.406;3.698;2022-12-16T17:48:55;11.40;99.90
70548;DHT22;58099;43.406;3.698;2022-12-16T17:51:40;11.40;99.90
70548;DHT22;58099;43.406;3.698;2022-12-16T17:54:25;11.40;99.90
70548;DHT22;58099;43.406;3.698;2022-12-16T17:57:10;11.40;99.90
70548;DHT22;58099;43.406;3.698;2022-12-16T17:59:55;11.40;99.90
70548;DHT22;58099;43.406;3.698;2022-12-16T18:02:39;11.50;99.90
70548;DHT22;58099;43.406;3.698;2022-12-16T18:05:24;11.40;99.90
70548;DHT22;58099;43.406;3.698;2022-12-16T18:08:09;11.60;99.90
70548;DHT22;58099;43.406;3.698;2022-12-16T18:10:55;11.60;99.90
70548;DHT22;58099;43.406;3.698;2022-12-16T18:13:40;11.50;99.90
70548;DHT22;58099;43.406;3.698;2022-12-16T18:16:24;11.40;99.90
70548;DHT22;58099;43.406;3.698;2022-12-16T18:19:13;11.30;99.90
70548;DHT22;58099;43.406;3.698;2022-12-16T18:21:57;11.40;99.90
70548;DHT22;58099;43.406;3.698;2022-12-16T18:24:41;11.40;99.90
70548;DHT22;58099;43.406;3.698;2022-12-16T18:27:25;11.30;99.90
70548;DHT22;58099;43.406;3.698;2022-12-16T18:30:11;11.20;99.90
70548;DHT22;58099;43.406;3.698;2022-12-16T18:32:56;11.10;99.90
70548;DHT22;58099;43.406;3.698;2022-12-16T18:35:40;11.20;99.90
70548;DHT22;58099;43.406;3.698;2022-12-16T18:38:25;11.20;99.90
70548;DHT22;58099;43.406;3.698;2022-12-16T18:41:18;11.20;99.90
70548;DHT22;58099;43.406;3.698;2022-12-16T18:44:04;11.20;99.90
70548;DHT22;58099;43.406;3.698;2022-12-16T18:46:48;11.30;99.90
70548;DHT22;58099;43.406;3.698;2022-12-16T18:49:32;11.20;99.90
70548;DHT22;58099;43.406;3.698;2022-12-16T18:52:17;11.20;99.90
70548;DHT22;58099;43.406;3.698;2022-12-16T18:55:01;11.10;99.90
70548;DHT22;58099;43.406;3.698;2022-12-16T18:57:45;11.20;99.90
70548;DHT22;58099;43.406;3.698;2022-12-16T19:00:29;11.20;99.90
70548;DHT22;58099;43.406;3.698;2022-12-16T19:03:14;11.20;99.90
70548;DHT22;58099;43.406;3.698;2022-12-16T19:05:58;11.00;99.90
70548;DHT22;58099;43.406;3.698;2022-12-16T19:08:42;11.00;99.90
70548;DHT22;58099;43.406;3.698;2022-12-16T19:11:27;11.00;99.90
70548;DHT22;58099;43.406;3.698;2022-12-16T19:14:11;11.00;99.90
70548;DHT22;58099;43.406;3.698;2022-12-16T19:16:55;11.00;99.90
70548;DHT22;58099;43.406;3.698;2022-12-16T19:19:40;11.10;99.90
70548;DHT22;58099;43.406;3.698;2022-12-16T19:22:24;11.00;99.90
70548;DHT22;58099;43.406;3.698;2022-12-16T19:25:08;10.90;99.90
70548;DHT22;58099;43.406;3.698;2022-12-16T19:27:52;10.90;99.90
70548;DHT22;58099;43.406;3.698;2022-12-16T19:30:37;10.80;99.90
70548;DHT22;58099;43.406;3.698;2022-12-16T19:33:21;10.70;99.90
70548;DHT22;58099;43.406;3.698;2022-12-16T19:36:05;10.60;99.90
70548;DHT22;58099;43.406;3.698;2022-12-16T19:38:49;10.50;99.90
70548;DHT22;58099;43.406;3.698;2022-12-16T19:41:33;10.40;99.90
70548;DHT22;58099;43.406;3.698;2022-12-16T19:44:17;10.30;99.90
70548;DHT22;58099;43.406;3.698;2022-12-16T19:47:01;10.10;99.90
70548;DHT22;58099;43.406;3.698;2022-12-16T19:49:45;10.10;99.90
70548;DHT22;58099;43.406;3.698;2022-12-16T19:52:29;10.10;99.90
70548;DHT22;58099;43.406;3.698;2022-12-16T19:55:13;10.00;99.90
70548;DHT22;58099;43.406;3.698;2022-12-16T19:57:57;10.10;99.90
70548;DHT22;58099;43.406;3.698;2022-12-16T20:00:42;10.10;99.90
70548;DHT22;58099;43.406;3.698;2022-12-16T20:03:26;10.00;99.90
70548;DHT22;58099;43.406;3.698;2022-12-16T20:06:10;10.00;99.90
70548;DHT22;58099;43.406;3.698;2022-12-16T20:08:55;10.00;99.90
70548;DHT22;58099;43.406;3.698;2022-12-16T20:11:40;9.80;99.90
70548;DHT22;58099;43.406;3.698;2022-12-16T20:14:25;9.90;99.90
70548;DHT22;58099;43.406;3.698;2022-12-16T20:17:09;9.90;99.90
70548;DHT22;58099;43.406;3.698;2022-12-16T20:19:54;9.80;99.90
70548;DHT22;58099;43.406;3.698;2022-12-16T20:22:39;9.70;99.90
70548;DHT22;58099;43.406;3.698;2022-12-16T20:25:24;9.60;99.90
70548;DHT22;58099;43.406;3.698;2022-12-16T20:28:08;9.60;99.90
70548;DHT22;58099;43.406;3.698;2022-12-16T20:30:52;9.50;99.90
70548;DHT22;58099;43.406;3.698;2022-12-16T20:33:36;9.50;99.90
70548;DHT22;58099;43.406;3.698;2022-12-16T20:36:21;9.50;99.90
70548;DHT22;58099;43.406;3.698;2022-12-16T20:39:05;9.60;99.90
70548;DHT22;58099;43.406;3.698;2022-12-16T20:41:49;9.50;99.90
70548;DHT22;58099;43.406;3.698;2022-12-16T20:44:33;9.50;99.90
70548;DHT22;58099;43.406;3.698;2022-12-16T20:47:18;9.50;99.90
70548;DHT22;58099;43.406;3.698;2022-12-16T20:50:02;9.40;99.90
70548;DHT22;58099;43.406;3.698;2022-12-16T20:52:46;9.50;99.90
70548;DHT22;58099;43.406;3.698;2022-12-16T20:55:30;9.40;99.90
70548;DHT22;58099;43.406;3.698;2022-12-16T20:58:31;9.50;99.90
70548;DHT22;58099;43.406;3.698;2022-12-16T21:01:16;9.50;99.90
70548;DHT22;58099;43.406;3.698;2022-12-16T21:04:00;9.50;99.90
70548;DHT22;58099;43.406;3.698;2022-12-16T21:06:44;9.40;99.90
70548;DHT22;58099;43.406;3.698;2022-12-16T21:09:28;9.40;99.90
70548;DHT22;58099;43.406;3.698;2022-12-16T21:12:12;9.40;99.90
70548;DHT22;58099;43.406;3.698;2022-12-16T21:14:56;9.30;99.90
70548;DHT22;58099;43.406;3.698;2022-12-16T21:17:40;9.30;99.90
70548;DHT22;58099;43.406;3.698;2022-12-16T21:20:24;9.10;99.90
70548;DHT22;58099;43.406;3.698;2022-12-16T21:23:08;9.10;99.90
70548;DHT22;58099;43.406;3.698;2022-12-16T21:25:53;9.00;99.90
70548;DHT22;58099;43.406;3.698;2022-12-16T21:28:37;9.00;99.90
70548;DHT22;58099;43.406;3.698;2022-12-16T21:31:21;9.00;99.90
70548;DHT22;58099;43.406;3.698;2022-12-16T21:34:05;9.00;99.90
70548;DHT22;58099;43.406;3.698;2022-12-16T21:36:50;9.00;99.90
70548;DHT22;58099;43.406;3.698;2022-12-16T21:39:34;9.00;99.90
70548;DHT22;58099;43.406;3.698;2022-12-16T21:42:18;8.90;99.90
70548;DHT22;58099;43.406;3.698;2022-12-16T21:45:03;8.80;99.90
70548;DHT22;58099;43.406;3.698;2022-12-16T21:47:52;8.80;99.90
70548;DHT22;58099;43.406;3.698;2022-12-16T21:50:36;8.70;99.90
70548;DHT22;58099;43.406;3.698;2022-12-16T21:53:20;8.60;99.90
70548;DHT22;58099;43.406;3.698;2022-12-16T21:56:04;8.60;99.90
70548;DHT22;58099;43.406;3.698;2022-12-16T21:58:49;8.70;99.90
70548;DHT22;58099;43.406;3.698;2022-12-16T22:01:33;8.70;99.90
70548;DHT22;58099;43.406;3.698;2022-12-16T22:04:17;8.70;99.90
70548;DHT22;58099;43.406;3.698;2022-12-16T22:07:01;8.70;99.90
70548;DHT22;58099;43.406;3.698;2022-12-16T22:09:45;8.70;99.90
70548;DHT22;58099;43.406;3.698;2022-12-16T22:12:34;8.70;99.90
70548;DHT22;58099;43.406;3.698;2022-12-16T22:15:19;8.70;99.90
70548;DHT22;58099;43.406;3.698;2022-12-16T22:18:04;8.70;99.90
70548;DHT22;58099;43.406;3.698;2022-12-16T22:20:56;8.60;99.90
70548;DHT22;58099;43.406;3.698;2022-12-16T22:23:40;8.50;99.90
70548;DHT22;58099;43.406;3.698;2022-12-16T22:26:24;8.40;99.90
70548;DHT22;58099;43.406;3.698;2022-12-16T22:29:08;8.30;99.90
70548;DHT22;58099;43.406;3.698;2022-12-16T22:31:52;8.30;99.90
70548;DHT22;58099;43.406;3.698;2022-12-16T22:34:36;8.30;99.90
70548;DHT22;58099;43.406;3.698;2022-12-16T22:37:20;8.40;99.90
70548;DHT22;58099;43.406;3.698;2022-12-16T22:40:05;8.40;99.90
70548;DHT22;58099;43.406;3.698;2022-12-16T22:42:49;8.40;99.90
70548;DHT22;58099;43.406;3.698;2022-12-16T22:45:33;8.30;99.90
70548;DHT22;58099;43.406;3.698;2022-12-16T22:48:17;8.20;99.90
70548;DHT22;58099;43.406;3.698;2022-12-16T22:51:01;8.20;99.90
70548;DHT22;58099;43.406;3.698;2022-12-16T22:53:47;8.10;99.90
70548;DHT22;58099;43.406;3.698;2022-12-16T22:56:32;8.00;99.90
70548;DHT22;58099;43.406;3.698;2022-12-16T22:59:16;7.90;99.90
70548;DHT22;58099;43.406;3.698;2022-12-16T23:02:00;7.90;99.90
70548;DHT22;58099;43.406;3.698;2022-12-16T23:04:44;8.00;99.90
70548;DHT22;58099;43.406;3.698;2022-12-16T23:07:28;7.90;99.90
70548;DHT22;58099;43.406;3.698;2022-12-16T23:10:12;8.00;99.90
70548;DHT22;58099;43.406;3.698;2022-12-16T23:12:57;7.90;99.90
70548;DHT22;58099;43.406;3.698;2022-12-16T23:15:41;8.00;99.90
70548;DHT22;58099;43.406;3.698;2022-12-16T23:18:25;7.90;99.90
70548;DHT22;58099;43.406;3.698;2022-12-16T23:21:14;7.80;99.90
70548;DHT22;58099;43.406;3.698;2022-12-16T23:23:59;7.90;99.90
70548;DHT22;58099;43.406;3.698;2022-12-16T23:26:43;7.80;99.90
70548;DHT22;58099;43.406;3.698;2022-12-16T23:29:28;7.80;99.90
70548;DHT22;58099;43.406;3.698;2022-12-16T23:32:12;7.80;99.90
70548;DHT22;58099;43.406;3.698;2022-12-16T23:34:56;7.80;99.90
70548;DHT22;58099;43.406;3.698;2022-12-16T23:37:40;7.80;99.90
70548;DHT22;58099;43.406;3.698;2022-12-16T23:40:41;7.80;99.90
70548;DHT22;58099;43.406;3.698;2022-12-16T23:43:25;7.90;99.90
70548;DHT22;58099;43.406;3.698;2022-12-16T23:46:09;7.90;99.90
70548;DHT22;58099;43.406;3.698;2022-12-16T23:48:53;7.90;99.90
70548;DHT22;58099;43.406;3.698;2022-12-16T23:51:37;8.00;99.90
70548;DHT22;58099;43.406;3.698;2022-12-16T23:54:21;8.00;99.90
70548;DHT22;58099;43.406;3.698;2022-12-16T23:57:05;8.10;99.90
70548;DHT22;58099;43.406;3.698;2022-12-16T23:59:50;8.00;99.90
